MDSDTNCB

Guest
Details From MDSD - Las Americas Intl
To TNCB - Bonaire Flamingo
Flight Number -
Tags generated
Created
Modified
Stats Distance 396 nm / 733 km
Max Altitude 35,000 ft / 10,668 m
Waypoints 8
Social Downloads 1
Likes 0
Share VATSIM

Download

Looking for another format? Having issues loading an existing format? Contact us
Advertisement - Login to hide

Notes

Basic altitude profile: - Ascent Rate: 2500ft/min - Ascent Speed: 250kts - Cruise Altitude: 19000ft - Cruise Speed: 420kts - Descent Rate: 1500ft/min - Descent Speed: 250kts Options: - Use NATs: yes - Use PACOTS: yes - Use low airways: yes - Use high airways: yes

Route

MDSD PIRON G446 KARUM UG446 KERLI TNCB

ID Type Via Altitude Latitude Longitude Leg Dist Tot Dist Heading (true) Name
O MDSD APT - 0 ft / 0 m 18.42966˚ -69.66893˚ - 0 nm - Las Americas Intl
PIRON FIX - 7,100 ft / 2,164 m 18.09806˚ -69.63000˚ 20 nm 20 nm 174° / 174° -
AVRES FIX G446 (AWY-LO) 17,800 ft / 5,425 m 17.60181˚ -69.57455˚ 29 nm 50 nm 174° / 174° -
KARUM FIX G446 (AWY-LO) 19,500 ft / 5,944 m 16.00000˚ -69.40000˚ 96 nm 146 nm 174° / 174° -
PERSO FIX UG446 (AWY-HI) 35,000 ft / 10,668 m 14.90972˚ -69.29083˚ 65 nm 212 nm 174° / 175° -
BREDA FIX UG446 (AWY-HI) 27,500 ft / 8,382 m 14.00000˚ -69.19500˚ 54 nm 267 nm 174° / 174° -
KERLI FIX UG446 (AWY-HI) 19,500 ft / 5,944 m 13.29833˚ -69.12334˚ 42 nm 309 nm 174° / 174° -
O TNCB APT - 0 ft / 0 m 12.13105˚ -68.26851˚ 86 nm 395 nm 144° / 145° Bonaire Flamingo

Altitude Profile

Advertisement - Login to hide

Weather


0- 5 10 15 20 25 30 35+ Temperature / ° C

Clouds and Precipitation
Forecast for 2017-12-15 06:00 UTC. Updated 2 hours ago

Ground ~20,000 ft ~40,000 ft Winds

MDSD

Details ICAO MDSD (SDQ)
Name Las Americas Intl
Region Dominican Republic
Timezone America/Santo_Domingo (UTC-4.0)
Stats Elevation 59 ft / 18 m (AMSL)
Location 18.429662° -69.668925°
Runways 1
Magnetic Variation 11.536° W

METAR

MDSD 150300Z 07004KT 9999 FEW016 24/23 Q1017

Decode

TAF

Not found

Departure Runways

ID Width Length Bearing (true) Bearing (mag) Surface Threshold Offset Overrun Length
17 200 ft / 61 m 11,051 ft / 3,368 m 160.78° 172.32° Asphalt 0 ft / 0 m 0 ft / 0 m
35 200 ft / 61 m 11,051 ft / 3,368 m 340.79° 352.33° Asphalt 0 ft / 0 m 0 ft / 0 m

TNCB

Details ICAO TNCB (BON)
Name Bonaire Flamingo
Region Caribbean Netherlands, Aruba, Curaçao, Sint Maarten
Timezone America/Curacao (UTC-4.0)
Stats Elevation 20 ft / 6 m (AMSL)
Location 12.131046° -68.268511°
Runways 1
Magnetic Variation 11.704° W

METAR

TNCB 150255Z AUTO 09010KT 9999 NCD 27/23 Q1014

Decode

TAF

TAF TAF TNCB 142325Z 1500/1606 09015KT 9999 SCT020 PROB30 TEMPO 1500/1502 10016G26KT 6000 SHRA SCT018CB

Decode

Destination Runways

ID Width Length Bearing (true) Bearing (mag) Surface Threshold Offset Overrun Length
10 148 ft / 45 m 9,451 ft / 2,881 m 91.75° 103.45° Asphalt 0 ft / 0 m 0 ft / 0 m
28 148 ft / 45 m 9,451 ft / 2,881 m 271.76° 283.46° Asphalt 0 ft / 0 m 200 ft / 61 m